Time;durP1;ratioP1;P1;durP2;ratioP2;P2;SDS_P1;SDS_P2;PMS_P1;PMS_P2;Temp;Humidity;BMP_temperature;BMP_pressure;BME280_temperature;BME280_humidity;BME280_pressure;Samples;Min_cycle;Max_cycle;Signal;HPM_P1;HPM_P2
2022/08/07 00:01:07;;;;;;;8.80;4.57;;;;;;;14.25;100.00;102297.44;5079803;28;20396;-78
2022/08/07 00:03:35;;;;;;;9.68;4.57;;;;;;;14.18;100.00;102304.38;5096110;28;20020;-78
2022/08/07 00:06:01;;;;;;;8.60;4.28;;;;;;;14.33;100.00;102299.63;5058211;28;20043;-78
2022/08/07 00:08:31;;;;;;;9.90;4.78;;;;;;;14.33;100.00;102299.63;5088617;28;20057;-77
2022/08/07 00:10:57;;;;;;;6.47;4.38;;;;;;;14.25;100.00;102293.78;5096242;28;20036;-77
2022/08/07 00:13:23;;;;;;;7.88;4.13;;;;;;;14.21;100.00;102303.28;5067778;28;20035;-78
2022/08/07 00:15:50;;;;;;;13.43;5.28;;;;;;;14.17;100.00;102299.88;5086468;28;20036;-77
2022/08/07 00:18:19;;;;;;;9.65;4.95;;;;;;;14.10;100.00;102298.53;5058671;28;20064;-78
2022/08/07 00:20:45;;;;;;;14.18;4.57;;;;;;;14.05;100.00;102296.13;5075023;28;20082;-78
2022/08/07 00:23:10;;;;;;;7.63;4.60;;;;;;;14.11;100.00;102292.03;5062833;28;20048;-78
2022/08/07 00:25:36;;;;;;;7.38;4.53;;;;;;;14.09;100.00;102294.91;5076378;28;20054;-78
2022/08/07 00:28:02;;;;;;;13.52;5.00;;;;;;;14.06;100.00;102289.59;5079517;28;20070;-78
2022/08/07 00:30:30;;;;;;;9.05;4.82;;;;;;;14.15;100.00;102286.22;5079655;28;20064;-77
2022/08/07 00:32:57;;;;;;;9.52;5.40;;;;;;;14.05;100.00;102279.59;5077460;28;20032;-77
2022/08/07 00:35:24;;;;;;;9.40;5.35;;;;;;;13.79;100.00;102286.94;5069756;28;20074;-77
2022/08/07 00:37:50;;;;;;;10.85;5.40;;;;;;;13.84;100.00;102273.72;5096663;28;20028;-78
2022/08/07 00:40:17;;;;;;;11.15;5.43;;;;;;;13.78;100.00;102277.78;5078795;28;20415;-78
2022/08/07 00:42:43;;;;;;;10.57;5.50;;;;;;;13.68;100.00;102275.78;5093374;28;20043;-77
2022/08/07 00:45:11;;;;;;;12.50;6.63;;;;;;;13.66;100.00;102275.91;5073387;28;20065;-77
2022/08/07 00:47:38;;;;;;;11.35;5.45;;;;;;;13.62;100.00;102270.72;5095369;28;20043;-77
2022/08/07 00:50:04;;;;;;;11.13;5.47;;;;;;;13.51;100.00;102274.19;5078140;28;20400;-77
2022/08/07 00:52:31;;;;;;;11.30;6.18;;;;;;;13.60;100.00;102270.81;5060923;28;20032;-78
2022/08/07 00:54:58;;;;;;;13.00;5.60;;;;;;;13.64;100.00;102266.84;5059281;28;20508;-78
2022/08/07 00:57:25;;;;;;;13.43;6.05;;;;;;;13.64;100.00;102263.22;5075944;28;20043;-77
2022/08/07 00:59:51;;;;;;;20.05;5.93;;;;;;;13.53;100.00;102270.34;5077009;28;20024;-77
2022/08/07 01:02:17;;;;;;;11.60;5.60;;;;;;;13.55;100.00;102262.88;5058252;28;20032;-77
2022/08/07 01:04:44;;;;;;;10.95;6.07;;;;;;;13.59;100.00;102258.03;5090301;28;20113;-78
2022/08/07 01:07:12;;;;;;;13.63;5.97;;;;;;;13.48;100.00;102253.28;5056360;28;20051;-76
2022/08/07 01:09:42;;;;;;;13.65;6.22;;;;;;;13.48;100.00;102250.53;5059454;28;20028;-77
2022/08/07 01:12:08;;;;;;;12.55;6.13;;;;;;;13.50;100.00;102250.44;5060223;28;20480;-77
2022/08/07 01:14:34;;;;;;;13.63;6.60;;;;;;;13.50;100.00;102255.94;5092981;28;20028;-77
2022/08/07 01:17:02;;;;;;;21.08;6.55;;;;;;;13.30;100.00;102243.50;5057467;28;20036;-77
2022/08/07 01:19:29;;;;;;;10.43;6.60;;;;;;;13.47;100.00;102242.38;5074720;28;20438;-77
2022/08/07 01:21:55;;;;;;;12.93;6.50;;;;;;;13.38;100.00;102249.38;5073664;28;20028;-77
2022/08/07 01:24:24;;;;;;;13.38;6.60;;;;;;;13.29;100.00;102250.00;5060735;28;20115;-78
2022/08/07 01:26:50;;;;;;;14.65;6.85;;;;;;;13.09;100.00;102246.72;5092486;28;20108;-77
2022/08/07 01:29:17;;;;;;;22.17;8.00;;;;;;;13.03;100.00;102248.00;5077973;28;20035;-77
2022/08/07 01:31:42;;;;;;;11.30;6.70;;;;;;;13.03;100.00;102247.13;5058991;28;20069;-78
2022/08/07 01:34:11;;;;;;;12.50;7.63;;;;;;;13.12;100.00;102252.03;5074718;28;20543;-77
2022/08/07 01:36:39;;;;;;;13.75;7.35;;;;;;;12.99;100.00;102235.47;5057770;28;20028;-77
2022/08/07 01:39:05;;;;;;;16.88;7.90;;;;;;;13.01;100.00;102238.13;5075728;28;20079;-78
2022/08/07 01:41:34;;;;;;;16.08;7.60;;;;;;;13.17;100.00;102235.22;5075765;28;20047;-77
2022/08/07 01:44:02;;;;;;;19.33;8.25;;;;;;;13.04;100.00;102233.28;5073886;28;20048;-76
2022/08/07 01:46:27;;;;;;;14.02;7.38;;;;;;;13.03;100.00;102236.13;5058501;28;20043;-77
2022/08/07 01:48:53;;;;;;;16.23;7.97;;;;;;;12.94;100.00;102236.78;5075150;28;20040;-77
2022/08/07 01:51:31;;;;;;;17.50;8.27;;;;;;;12.89;100.00;102239.84;5060356;28;20494;-78
2022/08/07 01:53:59;;;;;;;15.32;8.07;;;;;;;12.87;100.00;102231.69;5089589;28;20036;-78
2022/08/07 01:56:36;;;;;;;18.17;8.10;;;;;;;12.81;100.00;102229.34;5086628;28;20024;-78
2022/08/07 01:59:08;;;;;;;18.80;8.45;;;;;;;12.90;100.00;102236.06;5076592;28;20032;-77
2022/08/07 02:01:42;;;;;;;18.27;9.30;;;;;;;12.75;100.00;102234.38;5093618;28;20360;-77
2022/08/07 02:04:17;;;;;;;18.25;9.30;;;;;;;12.88;100.00;102233.44;5092818;28;20383;-77
2022/08/07 02:06:45;;;;;;;19.17;9.73;;;;;;;12.80;100.00;102229.44;5072902;28;20020;-79
2022/08/07 02:09:16;;;;;;;19.83;10.52;;;;;;;12.81;100.00;102233.97;5060819;28;20036;-79
2022/08/07 02:11:45;;;;;;;20.23;9.82;;;;;;;12.91;100.00;102237.84;5075411;28;20028;-77
2022/08/07 02:14:13;;;;;;;17.48;9.68;;;;;;;12.79;100.00;102234.06;5041447;28;20039;-78
2022/08/07 02:16:41;;;;;;;20.17;10.20;;;;;;;12.64;100.00;102233.22;5076727;28;20412;-78
2022/08/07 02:19:12;;;;;;;20.33;10.52;;;;;;;12.71;100.00;102236.44;5078138;28;20515;-78
2022/08/07 02:21:39;;;;;;;19.38;10.00;;;;;;;12.86;100.00;102232.66;5077130;28;20493;-78
2022/08/07 02:24:05;;;;;;;24.75;11.55;;;;;;;12.69;100.00;102220.06;5056152;28;20059;-78
2022/08/07 02:26:35;;;;;;;21.02;10.65;;;;;;;12.67;100.00;102219.28;5094026;28;20061;-78
2022/08/07 02:29:04;;;;;;;21.15;11.15;;;;;;;12.90;100.00;102214.09;5058164;28;20039;-77
2022/08/07 02:31:31;;;;;;;20.95;10.50;;;;;;;12.75;100.00;102223.38;5076506;28;20031;-78
2022/08/07 02:34:00;;;;;;;24.40;10.85;;;;;;;12.60;100.00;102220.66;5079779;28;20074;-78
2022/08/07 02:36:29;;;;;;;19.92;10.48;;;;;;;12.55;100.00;102228.31;5082679;28;20071;-78
2022/08/07 02:38:58;;;;;;;22.58;11.40;;;;;;;12.71;100.00;102224.53;5064998;28;20059;-77
2022/08/07 02:41:26;;;;;;;22.00;10.90;;;;;;;12.87;100.00;102225.28;5077896;28;20079;-78
2022/08/07 02:43:59;;;;;;;22.63;11.38;;;;;;;12.71;100.00;102222.69;5062776;28;20037;-78
2022/08/07 02:46:30;;;;;;;24.90;12.32;;;;;;;12.60;100.00;102230.75;5057771;28;20031;-78
2022/08/07 02:48:56;;;;;;;24.85;11.98;;;;;;;12.47;100.00;102228.81;5059799;28;20063;-78
2022/08/07 02:51:26;;;;;;;33.25;12.63;;;;;;;12.51;100.00;102226.75;5074733;28;20484;-77
2022/08/07 02:53:56;;;;;;;29.25;12.30;;;;;;;12.40;100.00;102219.22;5058674;28;20087;-77
2022/08/07 02:56:28;;;;;;;27.02;11.98;;;;;;;12.27;100.00;102227.34;5043500;28;20070;-77
2022/08/07 02:58:56;;;;;;;21.23;11.60;;;;;;;12.44;100.00;102217.13;5075444;28;20089;-78
2022/08/07 03:01:27;;;;;;;22.45;12.15;;;;;;;12.37;100.00;102218.53;5053006;28;20036;-77
2022/08/07 03:03:55;;;;;;;22.52;11.55;;;;;;;12.28;100.00;102218.16;5074015;28;20025;-78
2022/08/07 03:06:23;;;;;;;29.30;11.73;;;;;;;12.24;100.00;102223.94;5054554;28;20040;-78
2022/08/07 03:08:52;;;;;;;20.38;11.13;;;;;;;12.24;100.00;102222.06;5060350;28;20058;-77
2022/08/07 03:11:19;;;;;;;29.00;12.50;;;;;;;12.21;100.00;102205.78;5076032;28;20028;-78
2022/08/07 03:13:45;;;;;;;31.85;12.63;;;;;;;12.28;100.00;102209.00;5077502;28;20138;-79
2022/08/07 03:16:12;;;;;;;31.40;13.32;;;;;;;12.27;100.00;102216.38;5042234;28;20029;-78
2022/08/07 03:18:41;;;;;;;31.58;12.70;;;;;;;12.49;100.00;102213.13;5041555;28;20051;-78
2022/08/07 03:21:07;;;;;;;35.90;13.23;;;;;;;12.34;100.00;102219.59;5070458;28;20474;-77
2022/08/07 03:23:35;;;;;;;32.40;11.98;;;;;;;12.38;100.00;102212.03;5078096;28;20086;-78
2022/08/07 03:26:03;;;;;;;32.33;13.07;;;;;;;12.38;100.00;102212.94;5078084;28;20036;-77
2022/08/07 03:28:30;;;;;;;29.17;13.80;;;;;;;12.19;100.00;102215.97;5075182;28;20033;-78
2022/08/07 03:33:43;;;;;;;29.02;14.10;;;;;;;12.18;100.00;102211.47;5061138;28;20040;-78
2022/08/07 03:36:13;;;;;;;29.77;13.75;;;;;;;12.27;100.00;102210.88;5074944;28;20038;-78
2022/08/07 03:38:41;;;;;;;27.90;13.10;;;;;;;12.28;100.00;102209.91;5076468;28;20033;-79
2022/08/07 03:41:12;;;;;;;27.77;14.27;;;;;;;12.17;100.00;102208.81;5072259;28;20140;-77
2022/08/07 03:43:39;;;;;;;32.90;13.38;;;;;;;12.20;100.00;102203.13;5074406;28;20045;-79
2022/08/07 03:46:05;;;;;;;31.52;13.02;;;;;;;12.23;100.00;102208.41;5077620;28;20032;-78
2022/08/07 03:48:36;;;;;;;25.88;13.18;;;;;;;12.13;100.00;102211.78;5074693;28;20081;-76
2022/08/07 03:51:04;;;;;;;34.22;14.38;;;;;;;11.90;100.00;102210.47;5076720;28;20491;-77
2022/08/07 03:53:30;;;;;;;30.23;13.98;;;;;;;11.70;100.00;102205.31;5043489;28;20051;-78
2022/08/07 03:55:57;;;;;;;36.22;13.23;;;;;;;11.53;100.00;102220.97;5077201;28;20041;-77
2022/08/07 03:58:27;;;;;;;39.65;13.80;;;;;;;11.62;100.00;102213.16;5074402;28;20055;-77
2022/08/07 04:00:57;;;;;;;30.83;15.05;;;;;;;11.35;100.00;102214.75;5074157;28;20035;-77
2022/08/07 04:03:23;;;;;;;37.50;15.73;;;;;;;11.54;100.00;102221.84;5063963;28;20025;-77
2022/08/07 04:05:52;;;;;;;28.95;14.43;;;;;;;11.66;100.00;102214.72;5074801;28;20032;-77
2022/08/07 04:08:18;;;;;;;35.13;14.93;;;;;;;11.54;100.00;102216.34;5041777;28;20057;-78
2022/08/07 04:10:46;;;;;;;37.38;15.13;;;;;;;11.60;100.00;102207.75;5074662;28;20036;-79
2022/08/07 04:13:13;;;;;;;39.15;14.70;;;;;;;11.61;100.00;102212.28;5073781;28;20032;-77
2022/08/07 04:15:40;;;;;;;33.10;15.63;;;;;;;11.61;100.00;102209.53;5041210;28;20381;-77
2022/08/07 04:18:06;;;;;;;30.42;14.45;;;;;;;11.52;100.00;102218.31;5075561;28;20067;-77
2022/08/07 04:20:32;;;;;;;34.35;16.05;;;;;;;11.51;100.00;102217.44;5054630;28;20056;-78
2022/08/07 04:22:59;;;;;;;31.60;15.52;;;;;;;11.75;100.00;102219.63;5055889;28;20067;-78
2022/08/07 04:25:26;;;;;;;30.38;15.75;;;;;;;11.82;100.00;102215.53;5067935;28;20039;-78
2022/08/07 04:28:00;;;;;;;38.15;17.35;;;;;;;11.87;100.00;102228.97;5057211;28;20083;-77
2022/08/07 04:30:28;;;;;;;37.70;17.05;;;;;;;11.90;100.00;102220.53;5057578;28;20446;-77
2022/08/07 04:32:58;;;;;;;41.22;17.83;;;;;;;11.90;100.00;102226.94;5057257;28;20036;-77
2022/08/07 04:35:27;;;;;;;46.63;18.23;;;;;;;11.92;100.00;102219.50;5063459;28;20042;-77
2022/08/07 04:37:53;;;;;;;45.05;18.48;;;;;;;11.89;100.00;102222.41;5064601;28;20514;-78
2022/08/07 04:40:19;;;;;;;44.05;18.90;;;;;;;12.03;100.00;102221.56;5063832;28;20053;-77
2022/08/07 04:42:45;;;;;;;47.70;18.85;;;;;;;12.02;100.00;102216.16;5073298;28;20035;-78
2022/08/07 04:45:12;;;;;;;58.95;19.70;;;;;;;11.97;100.00;102226.56;5059590;28;20028;-78
2022/08/07 04:48:09;;;;;;;44.90;19.88;;;;;;;12.01;100.00;102225.41;5071286;28;20029;-77
2022/08/07 04:50:48;;;;;;;46.65;20.33;;;;;;;12.07;100.00;102230.50;5064413;28;20021;-77
2022/08/07 04:53:23;;;;;;;56.42;20.52;;;;;;;12.20;100.00;102244.31;5072290;28;20031;-78
2022/08/07 04:56:04;;;;;;;74.55;21.73;;;;;;;12.20;100.00;102242.47;5046893;28;20029;-77
2022/08/07 04:58:41;;;;;;;48.70;21.10;;;;;;;12.25;100.00;102245.81;5062609;28;20098;-78
2022/08/07 05:01:20;;;;;;;59.60;20.83;;;;;;;12.12;100.00;102239.34;5055226;28;20033;-77
2022/08/07 05:04:07;;;;;;;53.60;21.08;;;;;;;12.10;100.00;102235.78;5074220;28;20045;-78
2022/08/07 05:07:17;;;;;;;64.55;23.17;;;;;;;12.26;100.00;102235.69;5067277;28;20418;-77
2022/08/07 05:10:02;;;;;;;65.70;23.90;;;;;;;12.24;100.00;102243.16;5039700;28;20033;-77
2022/08/07 05:12:36;;;;;;;50.53;21.88;;;;;;;12.28;100.00;102240.13;5052012;28;20035;-77
2022/08/07 05:15:15;;;;;;;57.15;21.75;;;;;;;12.29;100.00;102241.00;5074219;28;20074;-77
2022/08/07 05:17:47;;;;;;;57.80;21.40;;;;;;;12.47;100.00;102242.53;5039560;28;20032;-77
2022/08/07 05:20:16;;;;;;;58.97;22.05;;;;;;;12.55;100.00;102247.53;5068494;28;20062;-75
2022/08/07 05:22:45;;;;;;;56.97;20.50;;;;;;;12.58;100.00;102250.09;5048402;28;20098;-78
2022/08/07 05:25:16;;;;;;;46.90;20.80;;;;;;;12.61;100.00;102251.75;5040574;28;20503;-76
2022/08/07 05:27:45;;;;;;;47.85;19.73;;;;;;;12.72;100.00;102251.94;5073253;28;20040;-77
2022/08/07 05:30:12;;;;;;;67.80;21.00;;;;;;;12.74;100.00;102255.47;5054867;28;20385;-76
2022/08/07 05:32:39;;;;;;;65.45;19.80;;;;;;;12.85;100.00;102260.25;5070849;28;20071;-76
2022/08/07 05:35:10;;;;;;;46.42;19.30;;;;;;;13.02;100.00;102257.25;5070051;28;20119;-76
2022/08/07 05:37:42;;;;;;;53.05;18.05;;;;;;;13.15;100.00;102262.81;5070600;28;20365;-77
2022/08/07 05:40:09;;;;;;;46.58;17.55;;;;;;;13.21;100.00;102251.38;5085059;28;20053;-75
2022/08/07 05:42:36;;;;;;;43.80;18.55;;;;;;;13.48;100.00;102268.91;5071906;28;20087;-77
2022/08/07 05:45:06;;;;;;;38.65;16.58;;;;;;;13.55;100.00;102262.00;5070671;28;20090;-76
2022/08/07 05:47:33;;;;;;;36.00;15.05;;;;;;;13.82;100.00;102266.56;5064626;28;20098;-77
2022/08/07 05:50:00;;;;;;;37.10;16.17;;;;;;;13.85;100.00;102266.34;5036914;28;20059;-75
2022/08/07 05:52:26;;;;;;;31.98;15.27;;;;;;;14.02;100.00;102270.66;5045581;28;20947;-76
2022/08/07 05:54:56;;;;;;;34.45;13.70;;;;;;;14.33;100.00;102264.72;5069586;28;20512;-77
2022/08/07 05:57:23;;;;;;;24.98;13.13;;;;;;;14.52;100.00;102263.38;5071123;28;20040;-77
2022/08/07 05:59:50;;;;;;;24.23;12.70;;;;;;;14.58;100.00;102265.69;5069117;28;20101;-77
2022/08/07 06:02:18;;;;;;;29.10;13.50;;;;;;;14.66;100.00;102257.75;5055763;28;20469;-77
2022/08/07 06:04:55;;;;;;;23.55;12.15;;;;;;;14.99;100.00;102263.63;5055825;28;20071;-78
2022/08/07 06:07:22;;;;;;;23.38;11.25;;;;;;;14.99;100.00;102266.38;5072522;28;20044;-76
2022/08/07 06:09:48;;;;;;;22.58;11.70;;;;;;;15.29;100.00;102260.41;5060173;28;20422;-77
2022/08/07 06:12:15;;;;;;;21.05;11.18;;;;;;;15.56;100.00;102262.03;5069602;28;20051;-76
2022/08/07 06:14:42;;;;;;;20.52;10.70;;;;;;;15.55;100.00;102272.19;5055035;28;20541;-78
2022/08/07 06:17:11;;;;;;;19.05;10.85;;;;;;;15.62;100.00;102267.94;5071995;28;20040;-77
2022/08/07 06:19:40;;;;;;;20.52;10.18;;;;;;;15.87;100.00;102274.38;5085920;28;20101;-77
2022/08/07 06:22:06;;;;;;;18.42;10.20;;;;;;;16.12;100.00;102276.03;5071629;28;20045;-77
2022/08/07 06:24:32;;;;;;;18.52;10.13;;;;;;;15.99;100.00;102278.03;5073286;28;20037;-77
2022/08/07 06:26:58;;;;;;;16.42;10.38;;;;;;;16.21;100.00;102266.13;5062019;28;20492;-77
2022/08/07 06:29:26;;;;;;;16.00;9.63;;;;;;;16.61;100.00;102273.94;5069955;28;20032;-77
2022/08/07 06:31:52;;;;;;;14.25;9.73;;;;;;;17.21;100.00;102274.50;5070933;28;20114;-76
2022/08/07 06:34:25;;;;;;;20.25;10.45;;;;;;;16.77;100.00;102273.53;5071917;28;20020;-77
2022/08/07 06:36:51;;;;;;;21.80;9.63;;;;;;;16.94;100.00;102263.88;5055567;28;20032;-77
2022/08/07 06:39:17;;;;;;;16.77;9.93;;;;;;;17.05;100.00;102266.63;5051323;28;20119;-77
2022/08/07 06:42:05;;;;;;;29.38;10.40;;;;;;;17.06;100.00;102265.59;5089536;28;20169;-77
2022/08/07 06:44:32;;;;;;;17.00;11.20;;;;;;;16.79;100.00;102267.88;5075704;28;20116;-77
2022/08/07 06:47:02;;;;;;;14.65;10.05;;;;;;;17.03;100.00;102265.00;5076252;28;20047;-77
2022/08/07 06:49:30;;;;;;;19.23;10.13;;;;;;;17.14;100.00;102269.63;5093075;28;20105;-77
2022/08/07 06:52:01;;;;;;;18.20;10.00;;;;;;;18.12;100.00;102269.47;5071567;28;20032;-77
2022/08/07 06:54:27;;;;;;;17.58;9.43;;;;;;;18.02;100.00;102271.31;5073660;28;20032;-76
2022/08/07 06:56:55;;;;;;;17.42;9.70;;;;;;;17.78;100.00;102269.63;5041463;28;20105;-77
2022/08/07 06:59:25;;;;;;;19.38;10.32;;;;;;;17.74;100.00;102268.16;5091756;28;20154;-76
2022/08/07 07:01:57;;;;;;;15.18;9.75;;;;;;;18.34;100.00;102270.31;5070974;28;20675;-77
2022/08/07 07:04:24;;;;;;;16.85;9.77;;;;;;;18.55;100.00;102271.13;5099298;28;20036;-77
2022/08/07 07:06:50;;;;;;;11.85;8.88;;;;;;;19.12;100.00;102270.66;5057708;28;20052;-77
2022/08/07 07:09:23;;;;;;;16.33;9.35;;;;;;;18.94;100.00;102276.00;5055982;28;20037;-77
2022/08/07 07:12:06;;;;;;;17.92;10.15;;;;;;;18.74;100.00;102263.91;5089592;28;20024;-77
2022/08/07 07:15:00;;;;;;;15.48;9.02;;;;;;;19.19;100.00;102266.25;5087845;28;20369;-76
2022/08/07 07:17:38;;;;;;;14.18;9.80;;;;;;;19.50;100.00;102266.16;5062661;28;20024;-79
2022/08/07 07:20:13;;;;;;;14.52;8.85;;;;;;;18.88;100.00;102268.25;5076925;28;20036;-77
2022/08/07 07:22:42;;;;;;;15.95;8.68;;;;;;;19.45;100.00;102268.50;5095544;28;20032;-78
2022/08/07 07:25:10;;;;;;;17.75;8.68;;;;;;;19.45;100.00;102266.59;5097025;28;20040;-77
2022/08/07 07:27:47;;;;;;;16.88;9.02;;;;;;;19.74;100.00;102271.28;5078068;28;20369;-77
2022/08/07 07:30:20;;;;;;;13.40;8.75;;;;;;;20.27;100.00;102278.25;5091511;28;20024;-77
2022/08/07 07:32:50;;;;;;;14.80;8.73;;;;;;;20.35;100.00;102286.72;5093843;28;20039;-77
2022/08/07 07:35:18;;;;;;;14.13;9.05;;;;;;;20.13;100.00;102274.03;5075147;28;20028;-77
2022/08/07 07:37:46;;;;;;;16.25;9.23;;;;;;;19.97;100.00;102283.00;5045558;28;20036;-77
2022/08/07 07:40:17;;;;;;;15.25;8.82;;;;;;;20.41;100.00;102273.22;5075800;28;20035;-77
2022/08/07 07:42:46;;;;;;;19.48;9.40;;;;;;;20.23;100.00;102275.91;5078179;28;20052;-78
2022/08/07 07:45:15;;;;;;;14.57;9.55;;;;;;;20.64;100.00;102279.31;5094790;28;20032;-77
2022/08/07 07:47:43;;;;;;;18.70;9.30;;;;;;;20.80;100.00;102278.69;5077732;28;20023;-76
2022/08/07 07:50:14;;;;;;;17.55;9.25;;;;;;;21.05;100.00;102265.91;5077273;28;20039;-77
2022/08/07 07:52:43;;;;;;;12.07;8.48;;;;;;;21.15;100.00;102271.44;5051839;28;20040;-76
2022/08/07 07:55:09;;;;;;;13.98;8.38;;;;;;;21.99;100.00;102273.00;5065773;28;20514;-77
2022/08/07 07:57:39;;;;;;;14.43;8.00;;;;;;;22.47;99.65;102263.22;5069037;28;20070;-77
2022/08/07 08:00:06;;;;;;;17.88;8.23;;;;;;;22.25;98.38;102261.84;5045908;28;20124;-78
2022/08/07 08:02:37;;;;;;;19.10;7.75;;;;;;;21.93;100.00;102257.78;5066451;28;20033;-76
2022/08/07 08:05:07;;;;;;;12.40;8.30;;;;;;;21.93;98.87;102252.19;5077029;28;20036;-77
2022/08/07 08:07:35;;;;;;;12.55;7.97;;;;;;;22.25;96.26;102245.13;5078282;28;20399;-78
2022/08/07 08:10:06;;;;;;;14.98;7.95;;;;;;;22.45;96.70;102247.69;5070759;28;20039;-77
2022/08/07 08:12:33;;;;;;;12.95;7.90;;;;;;;23.22;92.65;102245.78;5071713;28;20118;-78
2022/08/07 08:15:01;;;;;;;12.98;7.90;;;;;;;22.73;92.54;102240.84;5055616;28;20071;-77
2022/08/07 08:17:29;;;;;;;13.80;8.10;;;;;;;22.20;96.06;102230.75;5046371;28;20028;-78
2022/08/07 08:20:03;;;;;;;13.18;7.20;;;;;;;22.23;97.97;102230.44;5063392;28;20040;-78
2022/08/07 08:28:13;;;;;;;11.15;6.22;;;;;;;22.97;82.99;102227.16;5076150;28;20028;-78
2022/08/07 08:30:41;;;;;;;10.57;6.78;;;;;;;23.68;81.85;102234.97;5088402;28;20028;-78
2022/08/07 08:33:14;;;;;;;11.43;6.38;;;;;;;23.27;80.90;102240.53;5076572;28;20495;-77
2022/08/07 08:35:46;;;;;;;12.07;6.68;;;;;;;23.25;82.45;102234.25;5077328;28;20112;-78
2022/08/07 08:38:13;;;;;;;11.48;6.45;;;;;;;24.39;77.65;102237.19;5076593;28;20066;-77
2022/08/07 08:40:47;;;;;;;11.13;6.65;;;;;;;23.12;79.28;102231.94;5070863;28;20094;-76
2022/08/07 08:43:44;;;;;;;12.95;6.28;;;;;;;22.90;82.77;102230.59;5069887;28;20534;-78
2022/08/07 08:46:25;;;;;;;10.38;6.38;;;;;;;23.49;80.15;102226.94;5071742;28;20028;-77
2022/08/07 08:49:00;;;;;;;11.88;6.40;;;;;;;23.50;77.11;102237.09;5074420;28;20032;-78
2022/08/07 08:51:31;;;;;;;8.18;5.50;;;;;;;23.52;77.73;102232.19;5069607;28;20383;-77
2022/08/07 08:54:09;;;;;;;6.60;4.18;;;;;;;23.64;72.75;102236.38;5048135;28;20025;-77
2022/08/07 08:56:45;;;;;;;11.10;4.60;;;;;;;24.09;67.85;102239.72;5043105;28;20045;-77
2022/08/07 08:59:24;;;;;;;9.30;3.67;;;;;;;24.28;68.97;102235.63;5053807;28;20119;-77
2022/08/07 09:02:05;;;;;;;8.25;3.75;;;;;;;24.18;67.42;102240.56;5044583;28;20040;-78
2022/08/07 09:05:08;;;;;;;10.85;4.18;;;;;;;23.96;68.41;102234.66;5045614;28;20036;-78
2022/08/07 09:07:45;;;;;;;7.70;3.13;;;;;;;25.12;64.50;102237.97;5051396;28;20028;-77
2022/08/07 09:10:19;;;;;;;11.15;3.70;;;;;;;25.95;56.33;102238.25;5034908;28;20064;-78
2022/08/07 09:13:08;;;;;;;12.95;5.25;;;;;;;24.97;63.36;102243.47;5054355;28;20047;-77
2022/08/07 09:15:42;;;;;;;16.35;5.85;;;;;;;24.47;68.12;102228.78;5042797;28;20126;-77
2022/08/07 09:18:35;;;;;;;29.33;6.57;;;;;;;24.08;68.49;102237.97;5071504;28;20040;-78
2022/08/07 09:21:30;;;;;;;11.27;5.35;;;;;;;24.63;66.22;102235.38;5054449;28;20063;-77
2022/08/07 09:24:19;;;;;;;11.55;5.97;;;;;;;24.62;66.03;102228.94;5048977;28;20107;-78
2022/08/07 09:27:21;;;;;;;15.57;5.82;;;;;;;24.36;67.92;102237.56;5057409;28;20043;-78
2022/08/07 09:29:51;;;;;;;11.00;5.25;;;;;;;24.44;67.84;102233.88;5046781;28;20052;-79
2022/08/07 09:32:42;;;;;;;11.38;5.07;;;;;;;24.25;67.08;102230.41;5058970;28;20119;-78
2022/08/07 09:35:37;;;;;;;9.50;4.40;;;;;;;24.81;64.08;102222.03;5045010;28;20055;-78
2022/08/07 09:38:12;;;;;;;8.98;4.70;;;;;;;25.23;63.84;102222.66;5071574;28;20032;-78
2022/08/07 09:41:10;;;;;;;12.50;4.57;;;;;;;25.47;62.26;102221.66;5083061;28;20040;-77
2022/08/07 09:43:55;;;;;;;9.73;3.58;;;;;;;25.08;55.63;102217.84;5096290;28;20028;-79
2022/08/07 09:46:23;;;;;;;5.97;2.90;;;;;;;25.08;53.47;102206.63;5092525;28;20043;-78
2022/08/07 09:49:20;;;;;;;10.00;3.33;;;;;;;25.07;57.92;102204.00;5075229;28;20089;-78
2022/08/07 09:52:05;;;;;;;7.03;3.08;;;;;;;25.20;58.42;102207.06;5058859;28;20048;-78
2022/08/07 09:54:40;;;;;;;16.42;4.25;;;;;;;25.94;55.00;102202.81;5090582;28;20020;-78
2022/08/07 09:57:48;;;;;;;10.73;4.03;;;;;;;25.14;57.17;102202.22;5074484;28;20502;-80
2022/08/07 10:00:19;;;;;;;11.48;3.90;;;;;;;25.44;55.32;102196.78;5093655;28;20115;-78
2022/08/07 10:03:20;;;;;;;9.43;4.05;;;;;;;25.06;54.68;102200.34;5062981;28;20079;-78
2022/08/07 10:06:17;;;;;;;12.17;3.20;;;;;;;25.23;54.89;102189.00;5072444;28;20043;-78
2022/08/07 10:08:43;;;;;;;15.15;4.60;;;;;;;24.87;53.53;102193.25;5040921;28;20028;-79
2022/08/07 10:11:24;;;;;;;18.88;4.72;;;;;;;25.00;59.30;102189.84;5076876;28;20039;-78
2022/08/07 10:14:15;;;;;;;10.05;4.10;;;;;;;26.03;52.85;102190.47;5076787;28;20387;-78
2022/08/07 10:17:00;;;;;;;12.75;4.13;;;;;;;25.55;51.73;102189.84;5057386;28;20036;-79
2022/08/07 10:19:39;;;;;;;17.70;4.32;;;;;;;25.50;55.31;102191.28;5093104;28;20057;-77
2022/08/07 10:22:18;;;;;;;11.27;4.65;;;;;;;25.64;54.82;102180.31;5076433;28;20038;-77
2022/08/07 10:24:58;;;;;;;8.40;3.85;;;;;;;26.16;51.53;102171.03;5091221;28;20079;-78
2022/08/07 10:27:40;;;;;;;16.50;3.85;;;;;;;25.86;50.44;102181.34;5081306;28;20395;-77
2022/08/07 10:30:15;;;;;;;6.20;3.50;;;;;;;25.50;53.21;102171.66;5092968;28;20039;-78
2022/08/07 10:33:21;;;;;;;16.73;5.00;;;;;;;25.01;50.42;102179.53;5041778;28;20054;-77
2022/08/07 10:35:57;;;;;;;17.20;4.13;;;;;;;25.34;51.28;102169.00;5046085;28;20248;-77
2022/08/07 10:38:28;;;;;;;17.45;4.93;;;;;;;25.20;48.88;102166.94;5083884;28;20383;-79
2022/08/07 10:41:15;;;;;;;15.15;3.72;;;;;;;25.23;50.76;102164.66;5085513;28;20127;-78
2022/08/07 10:44:22;;;;;;;13.35;4.20;;;;;;;25.30;51.60;102160.09;5068657;28;20035;-78
2022/08/07 10:46:51;;;;;;;10.45;4.47;;;;;;;26.16;49.70;102150.50;5048570;28;20056;-79
2022/08/07 10:49:33;;;;;;;15.60;6.90;;;;;;;25.63;49.33;102159.81;5095715;28;20034;-78
2022/08/07 10:52:08;;;;;;;15.48;6.85;;;;;;;25.62;50.70;102163.66;5075081;28;20040;-78
2022/08/07 10:54:51;;;;;;;19.10;5.32;;;;;;;25.45;50.44;102162.06;5078353;28;20433;-77
2022/08/07 10:57:59;;;;;;;11.18;4.97;;;;;;;25.88;52.34;102155.88;5096090;28;20032;-78
2022/08/07 11:00:33;;;;;;;16.52;6.95;;;;;;;25.98;48.12;102154.56;5057870;28;20439;-77
2022/08/07 11:03:06;;;;;;;23.77;5.70;;;;;;;25.42;51.25;102151.22;5096480;28;20085;-79
2022/08/07 11:05:38;;;;;;;15.20;5.60;;;;;;;26.09;51.85;102141.09;5093325;28;20028;-79
2022/08/07 11:08:17;;;;;;;18.53;5.80;;;;;;;25.96;50.51;102141.81;5061254;28;20092;-79
2022/08/07 11:11:02;;;;;;;13.80;5.35;;;;;;;24.90;50.12;102136.84;5061857;28;20834;-80
2022/08/07 11:13:43;;;;;;;13.82;4.65;;;;;;;25.31;49.26;102142.19;5091680;28;20391;-79
2022/08/07 11:16:24;;;;;;;17.48;5.32;;;;;;;25.02;51.80;102136.41;5059687;28;20383;-79
2022/08/07 11:19:16;;;;;;;18.92;7.20;;;;;;;24.90;51.25;102133.19;5072826;28;20086;-78
2022/08/07 11:22:18;;;;;;;21.27;5.82;;;;;;;25.38;53.41;102121.81;5077060;28;20375;-79
2022/08/07 11:25:15;;;;;;;10.85;4.15;;;;;;;25.43;50.85;102117.41;5064193;28;20369;-80
2022/08/07 11:28:02;;;;;;;12.27;5.47;;;;;;;25.56;48.09;102116.72;5091761;28;20044;-80
2022/08/07 11:30:42;;;;;;;10.02;4.55;;;;;;;25.52;52.04;102120.13;5059928;28;20059;-78
2022/08/07 11:33:20;;;;;;;14.48;5.32;;;;;;;25.42;52.13;102107.22;5096409;28;20036;-78
2022/08/07 11:36:03;;;;;;;13.00;4.15;;;;;;;25.56;53.32;102102.69;5075793;28;20036;-79
2022/08/07 11:38:40;;;;;;;12.57;4.15;;;;;;;25.69;50.46;102104.84;5098743;28;20119;-78
2022/08/07 11:41:16;;;;;;;14.88;5.35;;;;;;;25.45;51.31;102104.03;5070080;28;20044;-79
2022/08/07 11:44:02;;;;;;;13.38;5.82;;;;;;;25.04;49.42;102101.56;5078810;28;20028;-79